x

Eel River - 17nm Wsw Of Eureka, Ca (46022) Wave Buoy

3:50am - Tue 24th Jan 2017 All times are PST. -8 hours from GMT.

  • Sig Wave height 16.1ft
  • Swell Direction
  • Peak Period 14s
  • Average Period 11s
  • Wind
    7mph, 11mph gusts
  • Sea Temp 51°f
  • Air Temp 47°f
  • Sea Pressure 1014.7mb
  • Eel River - 17nm Wsw Of Eureka, Ca
  • Eel River - 17nm Wsw Of Eureka, Ca

More Historic Weather Station data

Upgrade to MSW Pro to gain access to the past 30 days of data for over 8000 Wavebouys and Weather Stations around the globe.

Join Pro

Comparision Forecast

View Surf forecast
   
Tue 01/24 3:50am 16ft 14s 11s 7 11 mph 1014.7mb 51f 47f
2:50am 15ft 15s 11s 4 11 mph 1013.9mb 51f 47f
1:50am 14ft 16s 10s 7 13 mph 1012.9mb 51f 49f
12:50am 16ft 15s 11s 13 18 mph 1012.3mb 51f 51f
Mon 01/23 11:50pm 18.5ft 15s 11s 9 16 mph 1012.2mb 51f 49f
10:50pm 20.5ft 15s 11s 13 22 mph 1010.9mb 51f 48f
9:50pm 18.5ft 16s 11s 16 25 mph 1009.7mb 51f 48f
8:50pm 22.5ft 15s 11s 18 25 mph 1008.7mb 51f 47f
7:50pm 22ft 14s 11s 20 29 mph 1007.8mb 51f 47f
6:50pm 23ft 14s 11s 20 29 mph 1006.9mb 51f 47f
5:50pm 24ft 14s 11s 20 29 mph 1006.3mb 51f 47f
4:50pm 20ft 14s 10s 20 29 mph 1006mb 51f 48f
3:50pm 20ft 14s 10s 22 29 mph 1005.6mb 51f 48f
2:50pm 21ft 15s 11s 22 29 mph 1005.6mb 52f 47f
1:50pm 18.5ft 14s 10s 25 34 mph 1005.3mb 52f 48f
12:50pm 18.5ft 15s 10s 25 34 mph 1005.8mb 52f 48f
11:50am 15.5ft 14s 10s 27 34 mph 1006.1mb 52f 48f
10:50am 15.5ft 14s 10s 18 25 mph 1007.1mb 52f 46f
9:50am 15ft 14s 9s 22 27 mph 1006.6mb 52f 47f
8:50am 13.5ft 11s 9s 18 25 mph 1006.2mb 52f 47f
7:50am 13ft 12s 9s 13 18 mph 1006.1mb 52f 45f
6:50am 14ft 12s 9s 16 20 mph 1005.2mb 52f 46f
4:50am 13ft 13s 9s 16 25 mph 1004.5mb 52f 44f
3:50am 14ft 12s 9s 18 22 mph 1004.3mb 52f 46f
2:50am 15.5ft 13s 9s 16 25 mph 1004.2mb 52f 45f
1:50am 16ft 13s 9s 20 27 mph 1003.4mb 52f 46f
12:50am 17.5ft 13s 9s 18 25 mph 1003.5mb 52f 45f
Sun 01/22 11:50pm 16ft 12s 9s 18 25 mph 1003.2mb 52f 46f
10:50pm 17.5ft 11s 10s 20 27 mph 1002.9mb 52f 46f
9:50pm 16.5ft 11s 9s 20 27 mph 1002.3mb 52f 47f
8:50pm 18.5ft 12s 10s 20 25 mph 1002mb 52f 46f
7:50pm 18.5ft 14s 10s 20 27 mph 1001.6mb 52f 47f
6:50pm 17ft 12s 9s 20 25 mph 1001.6mb 52f 47f
5:50pm 17.5ft 12s 9s 25 31 mph 1001.1mb 52f 47f
4:50pm 17.5ft 14s 9s 25 31 mph 1000.9mb 52f 48f
3:50pm 17.5ft 14s 9s 18 22 mph 1001.2mb 52f 48f
2:50pm 18ft 14s 9s 27 34 mph 1000.7mb 52f 48f
1:50pm 16.5ft 11s 9s 25 31 mph 1001mb 52f 46f
12:50pm 16.5ft 13s 9s 29 34 mph 1001.8mb 52f 46f
11:50am 16.5ft 14s 10s 25 31 mph 1001.8mb 52f 51f
10:50am 16.5ft 14s 9s 25 31 mph 1002.4mb 52f 51f
9:50am 16.5ft 13s 10s 25 29 mph 1002.5mb 52f 51f
8:50am 15.5ft 15s 9s 22 27 mph 1001.9mb 52f 51f
7:50am 15ft 12s 9s 22 27 mph 1001.5mb 52f 51f
6:50am 16.5ft 15s 10s 18 22 mph 1000.9mb 52f 51f
5:50am 14.5ft 15s 9s 20 25 mph 1000mb 52f 51f
4:50am 15ft 15s 8s 22 29 mph 999.3mb 52f 51f
3:50am 15.5ft 15s 9s 25 29 mph 998.7mb 52f 51f
2:50am 15.5ft 10s 9s 25 29 mph 998.1mb 52f 49f
1:50am 18.5ft 16s 9s 22 27 mph 998.3mb 52f 48f
12:50am 19ft 9s 8s 45 56 mph 996.4mb 52f 49f
Sat 01/21 11:50pm 16ft 16s 8s 38 49 mph 994.7mb 52f 52f
10:50pm 18.5ft 17s 9s 38 47 mph 994.3mb 52f 51f
9:50pm 18ft 15s 9s 34 45 mph 995.9mb 52f 50f
8:50pm 18.5ft 17s 10s 31 40 mph 997.9mb 52f 50f
7:50pm 20ft 17s 10s 27 34 mph 1000mb 52f 50f
6:50pm 22.5ft 15s 10s 31 38 mph 1000.9mb 52f 51f
5:50pm 21.5ft 16s 11s 34 47 mph 1001.5mb 52f 52f
4:50pm 23.5ft 17s 12s 27 34 mph 1003mb 52f 52f
3:50pm 25ft 17s 12s 22 29 mph 1003.9mb 52f 51f
2:50pm 23.5ft 17s 12s 22 27 mph 1004.2mb 52f 52f
1:50pm 25ft 16s 12s 16 22 mph 1004.5mb 52f 50f
12:50pm 24ft 17s 12s 16 20 mph 1004.6mb 52f 52f
11:50am 27ft 17s 12s 18 22 mph 1004.4mb 52f 52f
10:50am 25.5ft 19s 12s 20 25 mph 1003.9mb 52f 52f
9:50am 25.5ft 17s 12s 22 29 mph 1002.3mb 52f 52f
8:50am 25.5ft 19s 12s 20 27 mph 1001.3mb 52f 51f
7:50am 26.5ft 19s 13s 20 27 mph 999.8mb 52f 50f
6:50am 22.5ft 19s 12s 22 31 mph 998.3mb 52f 51f
5:50am 23.5ft 17s 12s 22 27 mph 997mb 52f 50f
4:50am 21ft 17s 12s 22 29 mph 996.1mb 52f 51f
3:50am 22ft 17s 12s 20 29 mph 995.3mb 52f 52f
2:50am 24.5ft 16s 12s 20 25 mph 994.6mb 52f 51f
1:50am 24.5ft 16s 12s 18 25 mph 993.3mb 52f 50f
12:50am 24ft 16s 12s 22 27 mph 992.3mb 52f 51f
Fri 01/20 11:50pm 19.5ft 16s 11s 22 29 mph 991.5mb 52f 51f
10:50pm 17.5ft 16s 10s 22 29 mph 991.1mb 52f 51f
9:50pm 19.5ft 16s 10s 20 27 mph 990.9mb 52f 51f
8:50pm 15.5ft 13s 10s 16 22 mph 990.4mb 52f 51f
7:50pm 18.5ft 16s 10s 16 22 mph 989.8mb 52f 51f
6:50pm 17.5ft 15s 10s 16 20 mph 989.1mb 52f 49f
5:50pm 16.5ft 16s 10s 16 20 mph 988.3mb 52f 49f
4:50pm 15ft 13s 9s 16 20 mph 987.8mb 52f 50f
3:50pm 13ft 15s 9s 16 18 mph 987mb 52f 50f
2:50pm 13ft 13s 9s 18 22 mph 986.8mb 52f 49f
1:50pm 13ft 16s 9s 20 22 mph 986.5mb 52f 52f
12:50pm 14ft 15s 9s 20 25 mph 986.7mb 52f 51f